Time;durP1;ratioP1;P1;durP2;ratioP2;P2;SDS_P1;SDS_P2;PMS_P1;PMS_P2;Temp;Humidity;BMP_temperature;BMP_pressure;BME280_temperature;BME280_humidity;BME280_pressure;Samples;Min_cycle;Max_cycle;Signal;HPM_P1;HPM_P2
2022/12/22 04:01:05;;;;;;;254.13;42.92;;;8.50;99.90;;;;;;6149380;23;20087;-88
2022/12/22 04:03:31;;;;;;;229.55;40.95;;;8.50;99.90;;;;;;6164318;23;20064;-89
2022/12/22 04:05:56;;;;;;;295.95;43.28;;;8.50;99.90;;;;;;6166013;23;20016;-88
2022/12/22 04:08:22;;;;;;;346.27;47.53;;;8.50;99.90;;;;;;6164238;23;20009;-85
2022/12/22 04:13:32;;;;;;;318.92;44.83;;;8.50;99.90;;;;;;6190817;23;20017;-86
2022/12/22 04:15:57;;;;;;;308.85;45.65;;;8.50;99.90;;;;;;6164477;23;20009;-86
2022/12/22 04:18:23;;;;;;;365.00;50.55;;;8.50;99.90;;;;;;6164389;23;20020;-88
2022/12/22 04:20:49;;;;;;;381.58;47.92;;;8.50;99.90;;;;;;6163576;23;20013;-86
2022/12/22 04:23:14;;;;;;;404.75;47.72;;;8.50;99.90;;;;;;6191040;23;20048;-88
2022/12/22 04:25:40;;;;;;;438.80;50.20;;;8.50;99.90;;;;;;6164920;23;20445;-87
2022/12/22 04:28:05;;;;;;;365.40;45.75;;;8.50;99.90;;;;;;6163833;23;20017;-84
2022/12/22 04:30:31;;;;;;;311.60;43.85;;;8.50;99.90;;;;;;6164556;23;20044;-87
2022/12/22 04:32:57;;;;;;;294.33;42.00;;;8.50;99.90;;;;;;6164683;23;20504;-88
2022/12/22 04:35:22;;;;;;;340.42;47.13;;;8.50;99.90;;;;;;6164495;23;20088;-84
2022/12/22 04:37:48;;;;;;;306.70;42.35;;;8.50;99.90;;;;;;6163721;23;20045;-86
2022/12/22 04:40:13;;;;;;;363.77;46.00;;;8.50;99.90;;;;;;6190938;23;20013;-88
2022/12/22 04:42:39;;;;;;;430.35;51.30;;;8.50;99.90;;;;;;6140280;23;20017;-88
2022/12/22 04:45:05;;;;;;;473.27;50.90;;;8.50;99.90;;;;;;6164919;23;20017;-89
2022/12/22 04:47:31;;;;;;;442.20;48.78;;;8.40;99.90;;;;;;6165874;23;20016;-86
2022/12/22 04:49:57;;;;;;;433.02;49.90;;;8.50;99.90;;;;;;6191254;23;20013;-88
2022/12/22 04:52:25;;;;;;;399.02;47.63;;;8.50;99.90;;;;;;6190218;23;20017;-87
2022/12/22 04:54:51;;;;;;;529.88;55.53;;;8.40;99.90;;;;;;6190479;23;20446;-88
2022/12/22 04:57:17;;;;;;;478.25;48.72;;;8.40;99.90;;;;;;6191005;23;20017;-89
2022/12/22 04:59:43;;;;;;;527.95;56.30;;;8.40;99.90;;;;;;6165057;23;20019;-88
2022/12/22 05:02:08;;;;;;;431.25;48.95;;;8.40;99.90;;;;;;6164399;23;20024;-84
2022/12/22 05:04:34;;;;;;;419.35;47.47;;;8.40;99.90;;;;;;6163961;23;20053;-87
2022/12/22 05:07:00;;;;;;;295.90;42.90;;;8.40;99.90;;;;;;6190849;23;20045;-89
2022/12/22 05:09:25;;;;;;;331.60;45.05;;;8.40;99.90;;;;;;6192783;23;20021;-87
2022/12/22 05:11:51;;;;;;;370.75;46.30;;;8.40;99.90;;;;;;6167069;23;20013;-87
2022/12/22 05:14:16;;;;;;;379.48;45.08;;;8.40;99.90;;;;;;6193230;23;20067;-83
2022/12/22 05:16:42;;;;;;;371.05;45.78;;;8.40;99.90;;;;;;6141801;23;20075;-88
2022/12/22 05:19:11;;;;;;;376.42;47.00;;;8.30;99.90;;;;;;6193482;23;20419;-88
2022/12/22 05:21:36;;;;;;;395.70;46.75;;;8.30;99.90;;;;;;6142030;23;20009;-85
2022/12/22 05:24:02;;;;;;;409.30;46.95;;;8.30;99.90;;;;;;6166923;23;20382;-87
2022/12/22 05:26:28;;;;;;;314.15;43.78;;;8.30;99.90;;;;;;6142692;23;20015;-86
2022/12/22 05:28:53;;;;;;;291.85;44.85;;;8.30;99.90;;;;;;6192597;23;20017;-89
2022/12/22 05:31:22;;;;;;;250.57;43.00;;;8.20;99.90;;;;;;6143292;23;20196;-89
2022/12/22 05:33:48;;;;;;;215.98;40.45;;;8.20;99.90;;;;;;6167097;23;20036;-87
2022/12/22 05:36:14;;;;;;;199.55;39.80;;;8.20;99.90;;;;;;6193952;23;20048;-88
2022/12/22 05:38:40;;;;;;;171.25;37.63;;;8.30;99.90;;;;;;6193814;23;20067;-89
2022/12/22 05:41:07;;;;;;;150.82;34.92;;;8.20;99.90;;;;;;6166470;23;20387;-87
2022/12/22 05:43:33;;;;;;;146.82;34.13;;;8.20;99.90;;;;;;6167268;23;20112;-86
2022/12/22 05:46:04;;;;;;;131.50;33.65;;;8.20;99.90;;;;;;6167553;23;20020;-89
2022/12/22 05:48:30;;;;;;;138.20;35.05;;;8.10;99.90;;;;;;6194357;23;20017;-87
2022/12/22 05:50:55;;;;;;;154.02;37.00;;;8.10;99.90;;;;;;6143247;23;20013;-86
2022/12/22 05:53:21;;;;;;;139.32;34.90;;;8.10;99.90;;;;;;6193258;23;20473;-86
2022/12/22 05:55:47;;;;;;;129.40;33.03;;;8.10;99.90;;;;;;6165852;23;20024;-86
2022/12/22 05:58:12;;;;;;;161.10;36.00;;;8.10;99.90;;;;;;6166169;23;20013;-89
2022/12/22 06:00:38;;;;;;;110.30;31.75;;;8.10;99.90;;;;;;6167088;23;20320;-86
2022/12/22 06:03:04;;;;;;;116.68;30.77;;;8.10;99.90;;;;;;6194305;23;20019;-87
2022/12/22 06:05:29;;;;;;;111.28;32.72;;;8.00;99.90;;;;;;6193504;23;20435;-87
2022/12/22 06:07:55;;;;;;;103.13;31.65;;;8.00;99.90;;;;;;6142402;23;20092;-85
2022/12/22 06:10:20;;;;;;;106.13;29.90;;;8.00;99.90;;;;;;6143058;23;20020;-86
2022/12/22 06:12:46;;;;;;;112.57;30.52;;;8.00;99.90;;;;;;6193282;23;20059;-86
2022/12/22 06:15:13;;;;;;;103.00;29.85;;;7.90;99.90;;;;;;6166372;23;20167;-88
2022/12/22 06:17:39;;;;;;;104.82;29.48;;;7.90;99.90;;;;;;6141014;23;20025;-89
2022/12/22 06:20:06;;;;;;;99.13;30.17;;;7.80;99.90;;;;;;6140229;23;20460;-89
2022/12/22 06:22:33;;;;;;;116.55;28.63;;;7.80;99.90;;;;;;6166810;23;20013;-87
2022/12/22 06:24:59;;;;;;;98.03;28.45;;;7.70;99.90;;;;;;6142943;23;20005;-86
2022/12/22 06:27:24;;;;;;;105.82;29.40;;;7.70;99.90;;;;;;6168100;23;20102;-87
2022/12/22 06:29:53;;;;;;;123.25;30.17;;;7.60;99.90;;;;;;6142813;23;20048;-85
2022/12/22 06:32:19;;;;;;;107.85;28.60;;;7.50;99.90;;;;;;6143242;23;20045;-86
2022/12/22 06:34:44;;;;;;;113.45;28.30;;;7.40;99.90;;;;;;6168035;23;20021;-89
2022/12/22 06:37:10;;;;;;;110.22;28.90;;;7.40;99.90;;;;;;6142508;23;20009;-85
2022/12/22 06:39:36;;;;;;;118.07;30.33;;;7.30;99.90;;;;;;6165318;23;20017;-88
2022/12/22 06:44:46;;;;;;;124.28;30.65;;;7.20;99.90;;;;;;6198654;23;20024;-87
2022/12/22 06:47:13;;;;;;;123.18;30.55;;;7.10;99.90;;;;;;6152830;23;20017;-88
2022/12/22 06:49:38;;;;;;;106.30;27.38;;;7.10;99.90;;;;;;6192028;23;20019;-85
2022/12/22 06:52:07;;;;;;;122.13;30.00;;;7.00;99.90;;;;;;6139387;23;20021;-88
2022/12/22 06:54:33;;;;;;;136.98;30.30;;;7.00;99.90;;;;;;6139904;23;20020;-88
2022/12/22 06:56:58;;;;;;;134.50;30.42;;;7.00;99.90;;;;;;6163927;23;20017;-89
2022/12/22 06:59:24;;;;;;;142.05;29.60;;;7.00;99.90;;;;;;6140001;23;20088;-84
2022/12/22 07:01:50;;;;;;;139.57;31.00;;;7.00;99.90;;;;;;6163652;23;20013;-88
2022/12/22 07:04:19;;;;;;;157.13;31.60;;;7.00;99.90;;;;;;6139932;23;20379;-87
2022/12/22 07:06:45;;;;;;;238.80;30.45;;;6.90;99.90;;;;;;6140152;23;20096;-88
2022/12/22 07:09:11;;;;;;;354.90;37.75;;;6.90;99.90;;;;;;6165204;23;20017;-91
2022/12/22 07:11:37;;;;;;;340.25;33.53;;;6.90;99.90;;;;;;6140065;23;20020;-86
2022/12/22 07:14:03;;;;;;;330.95;29.48;;;6.80;99.90;;;;;;6139664;23;20056;-85
2022/12/22 07:16:28;;;;;;;400.65;33.60;;;6.80;99.90;;;;;;6166422;23;20013;-87
2022/12/22 07:18:54;;;;;;;357.55;31.13;;;6.70;99.90;;;;;;6139853;23;20013;-90
2022/12/22 07:21:19;;;;;;;278.63;27.00;;;6.70;99.90;;;;;;6190515;23;20011;-87
2022/12/22 07:23:45;;;;;;;469.25;34.53;;;6.70;99.90;;;;;;6191007;23;20087;-87
2022/12/22 07:26:12;;;;;;;466.35;34.45;;;6.60;99.90;;;;;;6140646;23;20167;-91
2022/12/22 07:28:39;;;;;;;386.42;30.17;;;6.60;99.90;;;;;;6167485;23;20017;-86
2022/12/22 07:31:05;;;;;;;397.17;30.52;;;6.60;99.90;;;;;;6140506;23;20035;-87
2022/12/22 07:33:31;;;;;;;391.33;32.70;;;6.60;99.90;;;;;;6190498;23;20005;-88
2022/12/22 07:36:10;;;;;;;335.70;28.95;;;6.60;99.90;;;;;;6164321;23;20459;-86
2022/12/22 07:38:38;;;;;;;230.68;23.42;;;6.50;99.90;;;;;;6140714;23;20001;-88
2022/12/22 07:42:43;;;;;;;288.98;23.92;;;6.40;99.90;;;;;;6164829;23;20009;-86
2022/12/22 07:43:56;;;;;;;314.08;24.67;;;6.40;99.90;;;;;;6165477;23;20013;-86
2022/12/22 07:46:27;;;;;;;273.00;24.17;;;6.30;99.90;;;;;;6164898;23;20059;-89
2022/12/22 07:51:39;;;;;;;326.77;27.42;;;6.20;99.90;;;;;;6164930;23;20063;-88
2022/12/22 07:54:07;;;;;;;281.90;24.55;;;6.20;99.90;;;;;;6165499;23;20016;-87
2022/12/22 07:56:33;;;;;;;385.27;26.88;;;6.20;99.90;;;;;;6141235;23;20040;-88
2022/12/22 07:58:58;;;;;;;259.10;20.88;;;6.20;99.90;;;;;;6142122;23;20009;-86
2022/12/22 08:01:25;;;;;;;292.63;24.35;;;6.10;99.90;;;;;;6190365;23;20009;-87
2022/12/22 08:03:51;;;;;;;271.27;22.38;;;6.00;99.90;;;;;;6164805;23;20020;-91
2022/12/22 08:06:16;;;;;;;220.52;21.45;;;6.00;99.90;;;;;;6140253;23;20017;-83
2022/12/22 08:08:42;;;;;;;343.92;26.15;;;6.00;99.90;;;;;;6164452;23;20009;-87
2022/12/22 08:11:08;;;;;;;352.25;27.05;;;6.00;99.90;;;;;;6139690;23;20075;-87
2022/12/22 08:13:34;;;;;;;184.90;18.73;;;5.90;99.90;;;;;;6165132;23;20013;-89
2022/12/22 08:16:08;;;;;;;265.23;20.77;;;6.00;99.90;;;;;;6165553;23;20013;-89
2022/12/22 08:18:35;;;;;;;231.05;20.83;;;5.90;99.90;;;;;;6141763;23;20013;-86
2022/12/22 08:21:02;;;;;;;188.35;17.67;;;6.00;99.90;;;;;;6192445;23;20009;-86
2022/12/22 08:23:27;;;;;;;211.65;18.35;;;6.00;99.90;;;;;;6164376;23;20382;-88
2022/12/22 08:26:06;;;;;;;195.90;16.58;;;6.00;99.90;;;;;;6163486;23;20012;-86
2022/12/22 08:28:35;;;;;;;227.00;17.20;;;6.00;99.90;;;;;;6191047;23;20051;-88
2022/12/22 08:31:02;;;;;;;289.92;20.85;;;6.00;99.90;;;;;;6163931;23;20017;-86
2022/12/22 08:33:27;;;;;;;193.07;18.45;;;6.00;99.90;;;;;;6163887;23;20024;-88
2022/12/22 08:35:55;;;;;;;216.43;18.45;;;6.10;99.90;;;;;;6165217;23;20009;-89
2022/12/22 08:38:21;;;;;;;278.20;22.08;;;6.10;99.90;;;;;;6142365;23;20064;-87
2022/12/22 08:40:47;;;;;;;318.20;24.25;;;6.10;99.90;;;;;;6166611;23;20017;-84
2022/12/22 08:43:13;;;;;;;311.17;25.08;;;6.10;99.90;;;;;;6166045;23;20013;-90
2022/12/22 08:45:41;;;;;;;288.25;20.10;;;6.20;99.90;;;;;;6191919;23;20013;-87
2022/12/22 08:48:08;;;;;;;309.60;19.95;;;6.20;99.90;;;;;;6164898;23;20068;-87
2022/12/22 08:50:34;;;;;;;291.85;21.42;;;6.20;99.90;;;;;;6140296;23;20040;-88
2022/12/22 08:53:05;;;;;;;325.30;20.25;;;6.20;99.90;;;;;;6164618;23;20493;-86
2022/12/22 08:55:30;;;;;;;331.75;20.65;;;6.20;99.90;;;;;;6164382;23;20024;-84
2022/12/22 08:57:56;;;;;;;238.32;18.73;;;6.20;99.90;;;;;;6138049;23;20013;-86
2022/12/22 09:00:22;;;;;;;276.98;18.98;;;6.20;99.90;;;;;;6139347;23;20016;-88
2022/12/22 09:02:48;;;;;;;251.45;22.15;;;6.20;99.90;;;;;;6163559;23;20443;-87
2022/12/22 09:05:14;;;;;;;274.48;19.10;;;6.30;99.90;;;;;;6163259;23;20019;-86
2022/12/22 09:07:40;;;;;;;315.02;21.35;;;6.30;99.90;;;;;;6138747;23;20024;-85
2022/12/22 09:10:07;;;;;;;233.43;18.73;;;6.30;99.90;;;;;;6162685;23;20395;-85
2022/12/22 09:12:33;;;;;;;237.15;17.95;;;6.30;99.90;;;;;;6163014;23;20021;-88
2022/12/22 09:14:59;;;;;;;194.23;19.02;;;6.30;99.90;;;;;;6162791;23;20439;-89
2022/12/22 09:17:25;;;;;;;214.55;18.52;;;6.40;99.90;;;;;;6162990;23;20238;-83
2022/12/22 09:19:51;;;;;;;195.77;17.13;;;6.30;99.90;;;;;;6162131;23;20041;-86
2022/12/22 09:22:17;;;;;;;164.60;15.80;;;6.30;99.90;;;;;;6137872;23;20076;-83
2022/12/22 09:24:43;;;;;;;183.20;17.17;;;6.40;99.90;;;;;;6163280;23;20012;-86
2022/12/22 09:27:09;;;;;;;207.85;18.10;;;6.30;99.90;;;;;;6162319;23;20016;-86
2022/12/22 09:29:36;;;;;;;177.85;16.50;;;6.30;99.90;;;;;;6189365;23;20113;-88
2022/12/22 09:32:02;;;;;;;147.45;15.38;;;6.40;99.90;;;;;;6137589;23;20017;-84
2022/12/22 09:34:28;;;;;;;134.90;15.25;;;6.40;99.90;;;;;;6138089;23;20017;-88
2022/12/22 09:36:54;;;;;;;177.68;18.67;;;6.30;99.90;;;;;;6189605;23;20031;-86
2022/12/22 09:39:19;;;;;;;129.48;15.45;;;6.30;99.90;;;;;;6162033;23;20016;-87
2022/12/22 09:41:49;;;;;;;116.40;14.52;;;6.30;99.90;;;;;;6162470;23;20017;-87
2022/12/22 09:44:40;;;;;;;134.02;15.73;;;6.30;99.90;;;;;;6189908;23;20320;-87
2022/12/22 09:47:18;;;;;;;122.95;15.27;;;6.50;99.90;;;;;;6043242;23;20052;-85
2022/12/22 09:49:44;;;;;;;116.80;15.43;;;6.40;99.90;;;;;;6189710;23;20017;-87
2022/12/22 09:52:29;;;;;;;97.68;15.05;;;6.50;99.90;;;;;;6189225;23;20021;-86
2022/12/22 09:54:55;;;;;;;90.93;14.13;;;6.50;99.90;;;;;;6164620;23;20019;-86
2022/12/22 09:57:26;;;;;;;99.88;17.10;;;6.50;99.90;;;;;;6165362;23;20017;-88
2022/12/22 09:59:51;;;;;;;69.18;14.80;;;6.60;99.90;;;;;;6141230;23;20031;-87
2022/12/22 10:02:42;;;;;;;61.78;13.95;;;6.60;99.90;;;;;;6190349;23;20013;-83
2022/12/22 10:05:27;;;;;;;74.72;13.43;;;6.50;99.90;;;;;;6191625;23;20013;-88
2022/12/22 10:07:57;;;;;;;60.83;14.80;;;6.50;99.90;;;;;;6190191;23;20021;-87
2022/12/22 10:10:28;;;;;;;61.75;14.45;;;6.50;99.90;;;;;;6163325;23;20020;-88
2022/12/22 10:12:55;;;;;;;47.78;12.25;;;6.60;99.90;;;;;;6165068;23;20024;-85
2022/12/22 10:15:21;;;;;;;52.92;12.93;;;6.60;99.90;;;;;;6163544;23;20070;-84
2022/12/22 10:17:50;;;;;;;53.83;12.40;;;6.60;99.90;;;;;;6164284;23;20013;-87
2022/12/22 10:20:19;;;;;;;50.05;13.55;;;6.60;99.90;;;;;;6164698;23;20049;-87
2022/12/22 10:22:57;;;;;;;45.25;12.13;;;6.70;99.90;;;;;;6165619;23;20020;-88
2022/12/22 10:25:26;;;;;;;48.50;12.85;;;6.70;99.90;;;;;;6169298;23;20454;-88
2022/12/22 10:27:53;;;;;;;37.55;11.50;;;6.70;99.90;;;;;;6174619;23;20020;-86
2022/12/22 10:30:25;;;;;;;44.63;12.32;;;6.80;99.90;;;;;;6201078;23;20017;-82
2022/12/22 10:33:16;;;;;;;45.83;13.27;;;6.90;99.90;;;;;;6213012;23;20064;-82
2022/12/22 10:35:45;;;;;;;41.28;12.45;;;7.00;99.90;;;;;;6203683;23;20020;-83
2022/12/22 10:38:19;;;;;;;38.83;13.18;;;7.10;99.90;;;;;;6166435;23;20017;-86
2022/12/22 10:40:48;;;;;;;32.45;10.95;;;7.20;99.90;;;;;;6164867;23;20331;-84
2022/12/22 10:43:21;;;;;;;35.65;12.85;;;7.30;99.90;;;;;;6164421;23;20084;-80
2022/12/22 10:45:48;;;;;;;35.33;11.77;;;7.40;99.90;;;;;;6164894;23;20064;-82
2022/12/22 10:48:14;;;;;;;31.98;10.38;;;7.50;99.90;;;;;;6164034;23;20020;-86
2022/12/22 10:50:49;;;;;;;28.88;10.48;;;7.50;99.90;;;;;;6191801;23;20386;-88
2022/12/22 10:53:14;;;;;;;29.13;10.27;;;7.60;99.90;;;;;;6140139;23;20025;-88
2022/12/22 10:55:40;;;;;;;30.75;10.38;;;7.70;99.90;;;;;;6164499;23;20116;-87
2022/12/22 10:58:18;;;;;;;28.58;9.60;;;7.70;99.90;;;;;;6139200;23;20029;-86
2022/12/22 11:00:58;;;;;;;34.80;10.57;;;7.80;99.90;;;;;;6190269;23;20009;-85
2022/12/22 11:03:29;;;;;;;32.08;9.95;;;7.80;99.90;;;;;;6139669;23;20013;-87
2022/12/22 11:05:56;;;;;;;32.63;9.75;;;7.80;99.90;;;;;;6163828;23;20084;-89
2022/12/22 11:08:23;;;;;;;27.10;9.65;;;7.80;99.90;;;;;;6189859;23;20129;-81
2022/12/22 11:10:56;;;;;;;36.42;11.13;;;7.80;99.90;;;;;;6188417;23;20062;-83
2022/12/22 11:13:38;;;;;;;24.92;10.38;;;7.80;99.90;;;;;;6162746;23;20486;-83
2022/12/22 11:16:20;;;;;;;29.85;11.05;;;7.90;99.90;;;;;;6189194;23;20009;-84
2022/12/22 11:19:00;;;;;;;25.85;10.23;;;8.00;99.90;;;;;;6162449;23;20021;-84
2022/12/22 11:21:48;;;;;;;21.80;8.93;;;8.00;99.90;;;;;;6137022;23;20017;-85
2022/12/22 11:24:39;;;;;;;26.92;10.68;;;8.00;99.90;;;;;;6162088;23;20015;-83
2022/12/22 11:27:32;;;;;;;19.35;9.95;;;8.10;99.90;;;;;;6161303;23;20013;-81
2022/12/22 11:30:07;;;;;;;24.08;9.38;;;8.20;99.90;;;;;;6187530;23;20336;-81
2022/12/22 11:33:03;;;;;;;19.17;8.18;;;8.30;99.90;;;;;;6161558;23;20075;-82
2022/12/22 11:35:45;;;;;;;16.55;6.97;;;8.30;99.90;;;;;;6161257;23;20017;-85
2022/12/22 11:38:10;;;;;;;18.00;7.22;;;8.50;99.90;;;;;;6161399;23;20028;-82
2022/12/22 11:40:47;;;;;;;22.00;6.97;;;8.50;99.90;;;;;;6160816;23;20074;-81
2022/12/22 11:43:25;;;;;;;17.88;6.22;;;8.70;99.90;;;;;;6160946;23;20020;-81
2022/12/22 11:46:19;;;;;;;18.85;5.88;;;8.90;99.90;;;;;;6136624;23;20515;-82
2022/12/22 11:49:04;;;;;;;19.13;7.20;;;8.90;99.90;;;;;;6161547;23;20166;-82
2022/12/22 11:51:50;;;;;;;19.13;6.13;;;9.00;99.90;;;;;;6187585;23;20067;-83
2022/12/22 11:54:22;;;;;;;17.95;6.40;;;9.10;99.90;;;;;;6161216;23;20020;-82
2022/12/22 11:57:14;;;;;;;15.48;6.40;;;9.20;99.90;;;;;;6187382;23;20021;-83
2022/12/22 12:00:07;;;;;;;17.08;5.57;;;9.30;99.90;;;;;;6161153;23;20024;-84
2022/12/22 12:02:51;;;;;;;22.55;5.90;;;9.40;99.90;;;;;;6186408;23;20012;-80
2022/12/22 12:05:55;;;;;;;19.75;5.40;;;9.40;99.90;;;;;;6188031;23;20088;-81
2022/12/22 12:08:42;;;;;;;19.50;6.57;;;9.40;99.90;;;;;;6161021;23;20015;-80
2022/12/22 12:11:20;;;;;;;20.70;5.38;;;9.60;99.90;;;;;;6161263;23;20013;-79
2022/12/22 12:14:09;;;;;;;12.55;5.63;;;9.60;99.90;;;;;;6187977;23;20028;-81
2022/12/22 12:16:58;;;;;;;12.35;5.47;;;9.60;99.90;;;;;;6187417;23;20051;-81
2022/12/22 12:19:41;;;;;;;13.40;3.78;;;9.70;99.90;;;;;;6161049;23;20020;-82
2022/12/22 12:22:38;;;;;;;19.63;5.60;;;9.70;99.90;;;;;;6186952;23;20009;-81
2022/12/22 12:25:27;;;;;;;15.27;5.18;;;9.70;99.90;;;;;;6186857;23;20049;-82
2022/12/22 12:28:14;;;;;;;13.48;4.43;;;9.80;99.90;;;;;;6136251;23;20427;-81
2022/12/22 12:31:00;;;;;;;15.23;5.63;;;9.80;99.90;;;;;;6186192;23;20096;-81
2022/12/22 12:33:59;;;;;;;;;;;9.70;99.90;;;;;;6186924;23;20017;-81
2022/12/22 12:36:43;;;;;;;13.57;5.22;;;9.70;99.90;;;;;;6122863;23;20299;-77
2022/12/22 12:39:28;;;;;;;15.98;4.70;;;9.60;99.90;;;;;;6160820;23;20020;-80
2022/12/22 12:42:17;;;;;;;17.88;4.32;;;9.50;99.90;;;;;;6135347;23;20510;-80
2022/12/22 12:44:44;;;;;;;15.32;5.07;;;9.60;99.90;;;;;;6135841;23;20017;-82
2022/12/22 12:47:27;;;;;;;15.60;4.93;;;9.70;99.90;;;;;;6160587;23;20088;-80
2022/12/22 12:50:01;;;;;;;14.30;4.20;;;9.60;99.90;;;;;;6159951;23;20017;-80
2022/12/22 12:52:39;;;;;;;11.47;4.70;;;9.60;99.90;;;;;;6160985;23;20478;-80
2022/12/22 12:55:30;;;;;;;16.02;4.72;;;9.60;99.90;;;;;;6160713;23;20009;-80
2022/12/22 12:58:02;;;;;;;15.07;5.75;;;9.50;99.90;;;;;;6186679;23;20021;-81
2022/12/22 13:00:34;;;;;;;10.77;3.63;;;9.60;99.90;;;;;;6159924;23;20419;-82
2022/12/22 13:03:04;;;;;;;11.63;3.75;;;9.70;99.90;;;;;;6161491;23;20017;-84
2022/12/22 13:05:49;;;;;;;8.80;3.47;;;9.80;99.90;;;;;;6187288;23;20012;-83
2022/12/22 13:08:23;;;;;;;11.60;4.30;;;9.80;99.90;;;;;;6187013;23;20023;-80
2022/12/22 13:10:52;;;;;;;9.80;3.72;;;9.90;99.90;;;;;;6184635;23;20526;-79
2022/12/22 13:13:20;;;;;;;11.15;3.70;;;9.80;99.90;;;;;;6157652;23;20017;-79
2022/12/22 13:15:59;;;;;;;11.98;3.75;;;9.80;99.90;;;;;;6157317;23;20024;-81
2022/12/22 13:18:25;;;;;;;9.55;3.28;;;9.80;99.90;;;;;;6184084;23;20023;-79
2022/12/22 13:21:24;;;;;;;17.35;4.45;;;9.80;99.90;;;;;;6184156;23;20084;-81
2022/12/22 13:24:09;;;;;;;13.63;3.95;;;9.70;99.90;;;;;;6185302;23;20009;-80
2022/12/22 13:26:38;;;;;;;10.65;3.25;;;9.80;99.90;;;;;;6135430;23;20024;-79
2022/12/22 13:29:19;;;;;;;12.70;3.30;;;9.90;99.90;;;;;;6188088;23;20063;-81
2022/12/22 13:31:57;;;;;;;12.25;3.50;;;10.30;99.90;;;;;;6188403;23;20075;-78
2022/12/22 13:34:45;;;;;;;11.73;3.85;;;10.50;99.90;;;;;;6161799;23;20435;-82
2022/12/22 13:37:22;;;;;;;11.30;2.97;;;10.60;99.90;;;;;;6161765;23;20017;-81
2022/12/22 13:40:29;;;;;;;6.93;2.60;;;10.40;99.90;;;;;;6188813;23;20464;-80
2022/12/22 13:43:12;;;;;;;16.05;3.60;;;10.10;99.90;;;;;;6044226;23;20015;-79
2022/12/22 13:45:42;;;;;;;12.25;3.42;;;9.90;99.90;;;;;;6156144;23;20016;-81
2022/12/22 13:48:32;;;;;;;17.58;4.55;;;9.70;99.90;;;;;;6162447;23;20024;-78
2022/12/22 13:51:00;;;;;;;18.40;3.95;;;9.70;99.90;;;;;;6167980;23;20024;-79
2022/12/22 13:53:36;;;;;;;16.52;4.15;;;9.70;99.90;;;;;;6163022;23;20047;-80
2022/12/22 13:56:05;;;;;;;7.90;3.15;;;9.80;99.90;;;;;;6188359;23;20549;-79
2022/12/22 13:58:36;;;;;;;11.35;3.60;;;9.80;99.90;;;;;;6137162;23;20558;-82
2022/12/22 14:01:08;;;;;;;14.43;3.80;;;9.70;99.90;;;;;;6161564;23;20447;-78
2022/12/22 14:03:35;;;;;;;10.38;4.28;;;9.70;99.90;;;;;;6161843;23;20013;-82
2022/12/22 14:06:01;;;;;;;13.07;4.05;;;9.60;99.90;;;;;;6137371;23;20402;-81
2022/12/22 14:08:26;;;;;;;12.93;4.00;;;9.60;99.90;;;;;;6161484;23;20017;-82
2022/12/22 14:10:54;;;;;;;10.88;4.00;;;9.50;99.90;;;;;;6161717;23;20048;-81
2022/12/22 14:13:26;;;;;;;10.68;3.33;;;9.50;99.90;;;;;;6161839;23;20024;-82
2022/12/22 14:16:00;;;;;;;13.82;4.07;;;9.40;99.90;;;;;;6161964;23;20021;-82
2022/12/22 14:18:26;;;;;;;9.15;2.78;;;9.40;99.90;;;;;;6161289;23;20021;-79
2022/12/22 14:20:53;;;;;;;13.38;3.70;;;9.30;99.90;;;;;;6188140;23;20013;-78
2022/12/22 14:23:23;;;;;;;12.20;3.72;;;9.20;99.90;;;;;;6188682;23;20052;-80
2022/12/22 14:25:51;;;;;;;17.40;3.53;;;9.10;99.90;;;;;;6188575;23;20013;-78
2022/12/22 14:28:27;;;;;;;15.77;3.92;;;9.10;99.90;;;;;;6161276;23;20439;-80
2022/12/22 14:30:57;;;;;;;10.90;3.30;;;9.00;99.90;;;;;;6161269;23;20332;-82
2022/12/22 14:33:22;;;;;;;9.93;3.83;;;9.00;99.90;;;;;;6188356;23;20450;-82
2022/12/22 14:35:48;;;;;;;15.45;3.83;;;8.90;99.90;;;;;;6188311;23;20013;-82
2022/12/22 14:38:23;;;;;;;10.27;4.05;;;8.90;99.90;;;;;;6187581;23;20036;-81
2022/12/22 14:40:50;;;;;;;17.33;3.83;;;8.90;99.90;;;;;;6160871;23;20339;-81
2022/12/22 14:43:18;;;;;;;12.80;3.50;;;8.90;99.90;;;;;;6160926;23;20049;-80
2022/12/22 14:45:46;;;;;;;10.68;3.63;;;8.90;99.90;;;;;;6161431;23;20340;-79
2022/12/22 14:48:28;;;;;;;11.35;3.40;;;8.90;99.90;;;;;;6161578;23;20047;-82
2022/12/22 14:50:55;;;;;;;9.77;3.08;;;8.80;99.90;;;;;;6161503;23;20009;-79
2022/12/22 14:53:30;;;;;;;15.65;4.57;;;8.80;99.90;;;;;;6136812;23;20016;-81
2022/12/22 14:55:56;;;;;;;;;;;8.70;99.90;;;;;;6188453;23;20017;-81
2022/12/22 14:58:30;;;;;;;;;;;8.70;99.90;;;;;;6161758;23;19923;-82
2022/12/22 15:01:13;;;;;;;10.65;3.67;;;8.70;99.90;;;;;;6136515;23;19918;-79
2022/12/22 15:03:39;;;;;;;13.25;4.05;;;8.60;99.90;;;;;;6161177;23;20559;-80
2022/12/22 15:06:33;;;;;;;13.25;4.00;;;8.60;99.90;;;;;;6188687;23;20040;-78
2022/12/22 15:09:10;;;;;;;18.63;5.15;;;8.60;99.90;;;;;;6161208;23;20013;-81
2022/12/22 15:11:39;;;;;;;12.90;4.82;;;8.60;99.90;;;;;;6187975;23;20028;-80
2022/12/22 15:14:19;;;;;;;12.57;5.25;;;8.50;99.90;;;;;;6187798;23;20011;-79
2022/12/22 15:16:46;;;;;;;12.77;6.53;;;8.50;99.90;;;;;;6187827;23;20052;-79
2022/12/22 15:19:15;;;;;;;13.05;7.15;;;8.50;99.90;;;;;;6187874;23;20032;-81
2022/12/22 15:21:41;;;;;;;15.55;7.50;;;8.40;99.90;;;;;;6161621;23;20335;-84
2022/12/22 15:24:11;;;;;;;22.88;7.70;;;8.40;99.90;;;;;;6188091;23;20012;-81
2022/12/22 15:26:37;;;;;;;18.33;8.80;;;8.30;99.90;;;;;;6187371;23;20020;-82
2022/12/22 15:29:03;;;;;;;17.20;8.38;;;8.20;99.90;;;;;;6161825;23;20087;-80
2022/12/22 15:31:28;;;;;;;19.05;9.00;;;8.30;99.90;;;;;;6161261;23;20095;-82
2022/12/22 15:33:58;;;;;;;18.20;9.43;;;8.20;99.90;;;;;;6160403;23;20343;-81
2022/12/22 15:36:24;;;;;;;43.65;11.52;;;8.10;99.90;;;;;;6187727;23;20055;-79
2022/12/22 15:38:50;;;;;;;34.20;18.45;;;8.10;99.90;;;;;;6160508;23;20013;-84
2022/12/22 15:41:15;;;;;;;21.60;10.52;;;8.10;99.90;;;;;;6160602;23;20017;-85
2022/12/22 15:43:41;;;;;;;18.23;10.95;;;8.00;99.90;;;;;;6160466;23;20456;-80
2022/12/22 15:46:10;;;;;;;25.58;10.82;;;8.00;99.90;;;;;;6186803;23;20009;-80
2022/12/22 15:48:38;;;;;;;23.30;11.98;;;7.90;99.90;;;;;;6161915;23;20363;-82
2022/12/22 15:51:06;;;;;;;29.45;13.32;;;7.90;99.90;;;;;;6187789;23;20020;-82
2022/12/22 15:53:33;;;;;;;29.15;14.25;;;7.90;99.90;;;;;;6192507;23;20009;-78
2022/12/22 15:55:58;;;;;;;25.67;14.95;;;7.90;99.90;;;;;;6176362;23;20073;-77
2022/12/22 15:58:34;;;;;;;31.42;15.60;;;7.90;99.90;;;;;;6174890;23;20021;-80
2022/12/22 16:00:59;;;;;;;;;;;7.80;99.90;;;;;;6189194;23;20088;-81
2022/12/22 16:03:25;;;;;;;;;;;7.80;99.90;;;;;;6161477;23;19916;-82
2022/12/22 16:05:51;;;;;;;30.20;16.57;;;7.80;99.90;;;;;;6186672;23;19916;-81
2022/12/22 16:08:23;;;;;;;30.77;16.85;;;7.80;99.90;;;;;;6135819;23;20049;-79
2022/12/22 16:10:49;;;;;;;33.28;18.10;;;7.80;99.90;;;;;;6160471;23;20016;-82
2022/12/22 16:13:15;;;;;;;32.70;17.75;;;7.70;99.90;;;;;;6187187;23;20035;-81
2022/12/22 16:15:41;;;;;;;34.50;19.27;;;7.60;99.90;;;;;;6160385;23;20017;-83
2022/12/22 16:18:10;;;;;;;34.30;19.63;;;7.60;99.90;;;;;;6160359;23;20095;-82
2022/12/22 16:20:41;;;;;;;34.65;19.05;;;7.60;99.90;;;;;;6160171;23;20017;-80
2022/12/22 16:23:15;;;;;;;33.08;19.30;;;7.60;99.90;;;;;;6160746;23;20015;-80
2022/12/22 16:25:43;;;;;;;38.35;21.02;;;7.50;99.90;;;;;;6136194;23;20020;-81
2022/12/22 16:28:17;;;;;;;38.30;20.75;;;7.50;99.90;;;;;;6186617;23;20044;-81
2022/12/22 16:30:43;;;;;;;33.90;17.80;;;7.50;99.90;;;;;;6160103;23;20509;-80
2022/12/22 16:33:13;;;;;;;39.00;18.67;;;7.50;99.90;;;;;;6187080;23;20013;-81
2022/12/22 16:35:39;;;;;;;37.40;17.50;;;7.50;99.90;;;;;;6187057;23;20313;-79
2022/12/22 16:38:05;;;;;;;38.58;18.45;;;7.50;99.90;;;;;;6159877;23;20088;-82
2022/12/22 16:40:38;;;;;;;36.92;18.05;;;7.40;99.90;;;;;;6186927;23;20005;-80
2022/12/22 16:43:28;;;;;;;40.15;18.27;;;7.40;99.90;;;;;;6160235;23;20541;-78
2022/12/22 16:45:55;;;;;;;34.97;15.88;;;7.40;99.90;;;;;;6135726;23;20009;-79
2022/12/22 16:48:33;;;;;;;36.67;16.60;;;7.40;99.90;;;;;;6187194;23;20016;-83
2022/12/22 16:50:58;;;;;;;42.65;17.92;;;7.40;99.90;;;;;;6186506;23;20017;-80
2022/12/22 16:53:24;;;;;;;40.05;18.02;;;7.40;99.90;;;;;;6186761;23;20016;-78
2022/12/22 16:55:50;;;;;;;47.38;19.33;;;7.30;99.90;;;;;;6159798;23;20020;-84
2022/12/22 16:58:15;;;;;;;35.92;16.67;;;7.30;99.90;;;;;;6160198;23;20077;-82
2022/12/22 17:00:43;;;;;;;42.78;17.83;;;7.30;99.90;;;;;;6160009;23;20458;-82
2022/12/22 17:03:21;;;;;;;45.00;19.58;;;7.30;99.90;;;;;;6187617;23;20013;-83
2022/12/22 17:05:59;;;;;;;42.38;17.60;;;7.30;99.90;;;;;;6162267;23;20017;-82